Time;durP1;ratioP1;P1;durP2;ratioP2;P2;SDS_P1;SDS_P2;PMS_P1;PMS_P2;Temp;Humidity;BMP_temperature;BMP_pressure;BME280_temperature;BME280_humidity;BME280_pressure;Samples;Min_cycle;Max_cycle;Signal;HPM_P1;HPM_P2
2023/04/30 00:01:38;;;;;;;;;30.60;23.00;;;;;16.04;48.62;101427.53;4949024;28;45442;-59
2023/04/30 00:04:04;;;;;;;;;27.00;24.25;;;;;15.94;48.93;101424.47;4934148;28;45554;-59
2023/04/30 00:06:30;;;;;;;;;23.75;21.25;;;;;15.75;49.71;101431.91;4933706;28;45616;-59
2023/04/30 00:08:56;;;;;;;;;23.00;22.20;;;;;15.63;49.70;101424.34;4933979;28;45347;-58
2023/04/30 00:11:21;;;;;;;;;25.25;22.00;;;;;15.68;49.95;101435.59;4934042;28;45430;-60
2023/04/30 00:13:46;;;;;;;;;28.75;24.00;;;;;15.81;50.24;101428.22;4932997;28;45550;-60
2023/04/30 00:16:12;;;;;;;;;35.75;27.75;;;;;15.89;49.53;101427.91;4948189;28;47344;-60
2023/04/30 00:18:38;;;;;;;;;34.50;30.25;;;;;15.84;49.49;101425.84;4948407;28;45454;-60
2023/04/30 00:21:03;;;;;;;;;32.00;29.25;;;;;15.76;49.75;101415.06;4933782;28;45338;-58
2023/04/30 00:23:29;;;;;;;;;34.75;31.00;;;;;15.72;49.62;101420.22;4933765;28;45281;-58
2023/04/30 00:25:54;;;;;;;;;29.00;28.75;;;;;15.65;50.22;101429.66;4933589;28;46321;-58
2023/04/30 00:28:20;;;;;;;;;30.25;28.00;;;;;15.59;50.33;101429.50;4932494;28;45394;-59
2023/04/30 00:30:46;;;;;;;;;31.25;26.75;;;;;15.37;50.14;101401.41;4948620;28;45373;-59
2023/04/30 00:33:11;;;;;;;;;25.75;24.75;;;;;15.36;50.90;101421.84;4933688;28;45260;-63
2023/04/30 00:35:37;;;;;;;;;27.50;26.25;;;;;15.38;50.51;101419.69;4933721;28;46147;-58
2023/04/30 00:38:02;;;;;;;;;34.00;29.75;;;;;15.43;50.55;101405.22;4933760;28;45813;-58
2023/04/30 00:40:28;;;;;;;;;27.50;24.00;;;;;15.51;50.85;101420.66;4933526;28;45437;-57
2023/04/30 00:42:54;;;;;;;;;27.50;26.50;;;;;15.49;51.00;101406.22;4933838;28;45890;-60
2023/04/30 00:45:21;;;;;;;;;33.00;28.40;;;;;15.48;50.38;101397.06;4933515;28;45563;-58
2023/04/30 00:47:47;;;;;;;;;25.80;24.20;;;;;15.54;50.61;101407.19;4933301;28;45466;-59
2023/04/30 00:50:14;;;;;;;;;25.00;22.60;;;;;15.54;50.29;101409.13;4933734;28;45431;-59
2023/04/30 00:52:41;;;;;;;;;25.60;23.20;;;;;15.54;50.41;101412.75;4933541;28;45352;-57
2023/04/30 00:55:07;;;;;;;;;23.40;22.00;;;;;15.50;50.85;101402.38;4948084;28;46354;-58
2023/04/30 00:57:33;;;;;;;;;29.60;25.80;;;;;15.56;50.75;101402.31;4947747;28;45295;-59
2023/04/30 00:59:58;;;;;;;;;34.00;30.75;;;;;15.41;51.24;101394.38;4948101;28;45396;-58
2023/04/30 01:02:24;;;;;;;;;31.75;26.75;;;;;15.30;51.00;101379.38;4932543;28;45443;-59
2023/04/30 01:04:49;;;;;;;;;27.00;22.75;;;;;15.39;51.32;101399.28;4947578;28;46743;-59
2023/04/30 01:07:15;;;;;;;;;31.00;28.50;;;;;15.10;51.05;101381.50;4919208;28;45909;-59
2023/04/30 01:09:41;;;;;;;;;30.50;26.00;;;;;15.04;51.40;101406.19;4927751;28;45378;-59
2023/04/30 01:12:14;;;;;;;;;29.25;26.25;;;;;14.99;51.46;101402.44;4933116;28;45579;-58
2023/04/30 01:15:20;;;;;;;;;26.80;23.20;;;;;14.94;51.83;101402.25;4933140;28;45412;-58
2023/04/30 01:18:04;;;;;;;;;28.40;24.00;;;;;14.95;52.06;101393.75;4947490;28;45417;-58
2023/04/30 01:20:29;;;;;;;;;22.40;21.00;;;;;14.89;52.45;101389.94;4948135;28;45484;-59
2023/04/30 01:23:18;;;;;;;;;25.25;21.00;;;;;15.03;52.03;101387.94;4947881;28;45449;-58
2023/04/30 01:25:53;;;;;;;;;27.00;21.60;;;;;15.00;51.28;101390.31;4932673;28;45331;-58
2023/04/30 01:28:19;;;;;;;;;24.80;23.80;;;;;14.97;51.74;101387.97;4931768;28;45414;-59
2023/04/30 01:30:45;;;;;;;;;23.20;18.60;;;;;14.86;52.19;101384.88;4947425;28;45311;-58
2023/04/30 01:33:11;;;;;;;;;29.00;25.20;;;;;14.80;52.73;101387.69;4931816;28;45386;-58
2023/04/30 01:35:39;;;;;;;;;22.20;20.20;;;;;14.87;52.18;101383.81;4932759;28;46557;-58
2023/04/30 01:38:27;;;;;;;;;30.40;23.80;;;;;14.87;51.72;101367.22;4932406;28;45319;-58
2023/04/30 01:40:56;;;;;;;;;25.60;23.40;;;;;14.90;52.29;101371.47;4950539;28;45385;-58
2023/04/30 01:43:55;;;;;;;;;18.20;17.80;;;;;14.99;51.91;101386.69;4950627;28;45367;-58
2023/04/30 01:46:28;;;;;;;;;24.60;23.00;;;;;14.98;52.04;101371.16;4950402;28;45293;-58
2023/04/30 01:49:22;;;;;;;;;27.40;23.60;;;;;15.09;51.88;101379.81;4934222;28;45461;-58
2023/04/30 01:51:48;;;;;;;;;25.80;25.80;;;;;15.11;51.77;101375.72;4957974;28;45506;-58
2023/04/30 01:54:20;;;;;;;;;26.00;19.50;;;;;15.11;51.50;101385.94;4950324;28;45975;-58
2023/04/30 01:57:05;;;;;;;;;25.20;22.80;;;;;15.08;51.84;101387.25;4935550;28;46253;-58
2023/04/30 01:59:35;;;;;;;;;21.20;19.40;;;;;14.92;51.75;101374.84;4915385;28;45708;-57
2023/04/30 02:02:01;;;;;;;;;24.60;22.00;;;;;14.94;52.26;101380.97;4947021;28;45456;-59
2023/04/30 02:04:26;;;;;;;;;24.50;23.00;;;;;14.98;51.60;101375.84;4916695;28;45432;-58
2023/04/30 02:06:52;;;;;;;;;22.00;18.00;;;;;15.03;51.56;101370.47;4912259;28;46034;-59
2023/04/30 02:09:17;;;;;;;;;25.75;20.50;;;;;15.14;51.74;101379.94;4931615;28;45350;-58
2023/04/30 02:11:43;;;;;;;;;25.00;19.25;;;;;15.08;51.85;101381.72;4934739;28;45419;-58
2023/04/30 02:14:08;;;;;;;;;18.50;18.25;;;;;15.00;51.67;101387.53;4934614;28;45739;-57
2023/04/30 02:16:34;;;;;;;;;26.75;22.00;;;;;14.93;52.09;101384.00;4932517;28;45804;-58
2023/04/30 02:19:00;;;;;;;;;25.00;25.00;;;;;14.82;52.40;101386.41;4935378;28;45227;-59
2023/04/30 02:21:26;;;;;;;;;27.60;22.60;;;;;14.81;52.39;101381.94;4934385;28;45311;-58
2023/04/30 02:23:51;;;;;;;;;20.20;19.20;;;;;14.85;51.77;101385.97;4947784;28;45253;-58
2023/04/30 02:26:17;;;;;;;;;28.25;23.00;;;;;14.94;51.87;101388.44;4932751;28;46146;-58
2023/04/30 02:28:42;;;;;;;;;23.75;21.50;;;;;14.96;51.97;101386.28;4934167;28;45272;-59
2023/04/30 02:31:08;;;;;;;;;21.25;18.25;;;;;15.01;51.61;101386.47;4935134;28;45418;-59
2023/04/30 02:33:33;;;;;;;;;22.00;18.25;;;;;14.98;51.97;101386.91;4934512;28;45540;-58
2023/04/30 02:35:59;;;;;;;;;25.25;23.00;;;;;14.86;52.19;101389.56;4934894;28;45449;-58
2023/04/30 02:38:24;;;;;;;;;26.25;25.50;;;;;14.84;51.47;101372.34;4933434;28;45429;-58
2023/04/30 02:40:50;;;;;;;;;23.25;19.25;;;;;14.96;51.58;101389.03;4935199;28;45413;-58
2023/04/30 02:43:15;;;;;;;;;18.50;16.25;;;;;14.86;51.51;101361.91;4935129;28;45349;-59
2023/04/30 02:45:40;;;;;;;;;19.50;18.50;;;;;15.14;51.33;101388.25;4934925;28;46171;-59
2023/04/30 02:48:06;;;;;;;;;25.50;18.50;;;;;15.14;51.35;101385.47;4934767;28;45370;-58
2023/04/30 02:50:31;;;;;;;;;19.25;17.50;;;;;15.22;51.27;101390.75;4934444;28;45335;-58
2023/04/30 02:52:57;;;;;;;;;25.50;22.25;;;;;14.93;51.64;101382.06;4933816;28;45635;-59
2023/04/30 02:55:22;;;;;;;;;22.50;18.25;;;;;14.91;51.31;101400.78;4934152;28;46458;-59
2023/04/30 02:57:48;;;;;;;;;17.75;16.75;;;;;14.82;51.95;101393.81;4934534;28;45410;-59
2023/04/30 03:00:14;;;;;;;;;21.75;20.00;;;;;14.87;51.66;101394.00;4949891;28;45374;-58
2023/04/30 03:02:39;;;;;;;;;18.50;18.25;;;;;14.89;51.91;101386.34;4949395;28;45241;-59
2023/04/30 03:05:05;;;;;;;;;21.50;21.00;;;;;14.91;51.82;101386.97;4934672;28;46287;-59
2023/04/30 03:07:31;;;;;;;;;20.25;18.00;;;;;14.85;52.16;101387.88;4934520;28;45319;-59
2023/04/30 03:09:56;;;;;;;;;24.25;20.00;;;;;14.75;52.44;101380.06;4935158;28;45661;-58
2023/04/30 03:12:22;;;;;;;;;26.50;24.00;;;;;14.88;52.07;101368.06;4934828;28;45228;-59
2023/04/30 03:14:47;;;;;;;;;22.25;18.25;;;;;14.94;51.90;101394.78;4934472;28;46381;-59
2023/04/30 03:17:12;;;;;;;;;24.00;20.00;;;;;14.94;51.63;101389.25;4934582;28;45375;-58
2023/04/30 03:19:38;;;;;;;;;20.50;16.75;;;;;14.86;51.94;101384.03;4934554;28;45553;-59
2023/04/30 03:22:03;;;;;;;;;22.25;21.25;;;;;14.80;52.03;101377.50;4934502;28;45302;-59
2023/04/30 03:24:29;;;;;;;;;25.00;22.50;;;;;14.59;52.55;101382.28;4948856;28;46009;-59
2023/04/30 03:26:55;;;;;;;;;26.00;23.25;;;;;14.35;53.36;101383.91;4934593;28;45367;-59
2023/04/30 03:29:20;;;;;;;;;24.00;22.00;;;;;14.46;53.49;101377.69;4949148;28;45519;-58
2023/04/30 03:31:46;;;;;;;;;23.75;22.00;;;;;14.52;53.13;101378.75;4934408;28;45591;-59
2023/04/30 03:34:11;;;;;;;;;25.50;23.75;;;;;14.51;53.33;101385.31;4933909;28;46285;-59
2023/04/30 03:36:37;;;;;;;;;22.00;22.00;;;;;14.39;53.33;101384.31;4948820;28;45429;-58
2023/04/30 03:39:03;;;;;;;;;24.00;21.00;;;;;14.46;53.24;101385.16;4934184;28;45442;-58
2023/04/30 03:41:28;;;;;;;;;24.00;20.75;;;;;14.51;52.77;101382.53;4934814;28;45161;-58
2023/04/30 03:43:54;;;;;;;;;21.25;20.00;;;;;14.56;52.80;101384.66;4948774;28;46505;-58
2023/04/30 03:46:19;;;;;;;;;23.75;23.75;;;;;14.55;53.33;101375.50;4934305;28;45274;-58
2023/04/30 03:48:45;;;;;;;;;24.50;22.00;;;;;14.59;52.90;101371.25;4933946;28;45295;-59
2023/04/30 03:51:10;;;;;;;;;24.25;24.00;;;;;14.46;53.19;101377.69;4934617;28;45207;-58
2023/04/30 03:53:36;;;;;;;;;26.00;26.00;;;;;14.57;53.12;101375.31;4934088;28;46146;-58
2023/04/30 03:56:02;;;;;;;;;23.25;22.25;;;;;14.56;52.87;101365.31;4934068;28;45353;-59
2023/04/30 03:58:28;;;;;;;;;24.00;21.00;;;;;14.61;53.47;101376.53;4934267;28;45300;-58
2023/04/30 04:00:54;;;;;;;;;26.40;25.60;;;;;14.62;53.07;101373.53;4932985;28;45481;-60
2023/04/30 04:03:19;;;;;;;;;34.50;27.00;;;;;14.70;53.17;101380.72;4932722;28;46311;-59
2023/04/30 04:05:45;;;;;;;;;25.50;21.25;;;;;14.60;53.34;101372.06;4932142;28;45409;-59
2023/04/30 04:08:11;;;;;;;;;31.75;28.75;;;;;14.57;53.58;101359.56;4932682;28;45396;-59
2023/04/30 04:10:37;;;;;;;;;24.25;24.25;;;;;14.71;53.39;101376.03;4934344;28;45417;-59
2023/04/30 04:13:02;;;;;;;;;32.80;29.00;;;;;14.72;53.28;101366.66;4931872;28;45362;-59
2023/04/30 04:15:28;;;;;;;;;27.25;24.25;;;;;14.76;52.57;101371.56;4934123;28;45235;-59
2023/04/30 04:17:53;;;;;;;;;32.00;24.75;;;;;14.67;53.22;101369.28;4933587;28;45402;-59
2023/04/30 04:20:19;;;;;;;;;29.25;28.75;;;;;14.42;53.82;101370.94;4934119;28;45232;-58
2023/04/30 04:22:45;;;;;;;;;30.50;29.00;;;;;14.38;54.48;101372.44;4932198;28;45417;-59
2023/04/30 04:25:10;;;;;;;;;32.25;28.25;;;;;14.35;54.80;101367.34;4932278;28;45328;-58
2023/04/30 04:27:36;;;;;;;;;32.50;29.50;;;;;14.28;54.64;101377.59;4933857;28;45278;-58
2023/04/30 04:30:02;;;;;;;;;33.50;29.75;;;;;14.31;54.87;101375.22;4933655;28;45349;-58
2023/04/30 04:32:29;;;;;;;;;36.40;29.00;;;;;14.41;54.31;101374.75;4933307;28;45821;-59
2023/04/30 04:34:55;;;;;;;;;31.40;28.00;;;;;14.55;54.10;101378.28;4933439;28;45552;-59
2023/04/30 04:37:21;;;;;;;;;32.20;27.40;;;;;14.52;53.87;101375.97;4932147;28;45365;-59
2023/04/30 04:39:47;;;;;;;;;33.75;27.50;;;;;14.29;54.93;101374.63;4933846;28;45465;-58
2023/04/30 04:42:14;;;;;;;;;35.25;30.00;;;;;14.41;54.73;101376.69;4933038;28;45645;-58
2023/04/30 04:44:40;;;;;;;;;31.20;27.60;;;;;14.41;54.65;101374.75;4933494;28;45441;-59
2023/04/30 04:47:05;;;;;;;;;30.60;27.40;;;;;14.34;55.21;101390.50;4933488;28;45422;-58
2023/04/30 04:49:31;;;;;;;;;33.00;31.00;;;;;14.06;55.12;101353.09;4933797;28;45649;-59
2023/04/30 04:51:56;;;;;;;;;32.50;31.75;;;;;14.34;54.91;101385.84;4933443;28;45962;-58
2023/04/30 04:54:22;;;;;;;;;28.00;28.00;;;;;14.41;54.97;101387.72;4931544;28;45407;-59
2023/04/30 04:56:47;;;;;;;;;36.00;30.25;;;;;14.52;54.62;101388.94;4948465;28;45299;-59
2023/04/30 04:59:13;;;;;;;;;35.00;31.25;;;;;14.47;54.71;101387.66;4933336;28;45354;-58
2023/04/30 05:01:38;;;;;;;;;30.50;25.50;;;;;14.51;54.69;101388.06;4948056;28;46056;-59
2023/04/30 05:04:04;;;;;;;;;32.00;32.00;;;;;14.50;54.95;101391.91;4933072;28;45405;-59
2023/04/30 05:06:29;;;;;;;;;30.25;27.00;;;;;14.50;55.06;101386.38;4932889;28;45417;-59
2023/04/30 05:08:55;;;;;;;;;38.75;31.50;;;;;14.45;54.97;101395.34;4933479;28;45307;-58
2023/04/30 05:11:21;;;;;;;;;32.25;27.75;;;;;14.49;55.04;101391.06;4932686;28;46540;-59
2023/04/30 05:13:47;;;;;;;;;31.60;27.80;;;;;14.48;55.20;101391.28;4933580;28;45414;-58
2023/04/30 05:16:12;;;;;;;;;37.25;32.50;;;;;14.64;54.74;101395.44;4936265;28;45341;-58
2023/04/30 05:18:38;;;;;;;;;45.75;34.00;;;;;14.67;53.92;101389.44;4936050;28;45365;-58
2023/04/30 05:21:03;;;;;;;;;35.00;30.25;;;;;14.76;54.10;101392.81;4950082;28;48285;-58
2023/04/30 05:23:29;;;;;;;;;38.00;33.00;;;;;14.81;54.51;101395.75;4950587;28;45830;-58
2023/04/30 05:25:54;;;;;;;;;37.25;33.50;;;;;14.80;54.45;101401.50;4934785;28;45384;-58
2023/04/30 05:28:20;;;;;;;;;38.25;33.25;;;;;14.81;54.08;101414.25;4935816;28;45256;-58
2023/04/30 05:30:45;;;;;;;;;36.25;33.50;;;;;14.82;54.45;101410.41;4935848;28;46273;-60
2023/04/30 05:33:11;;;;;;;;;34.50;32.50;;;;;14.80;53.91;101409.78;4935729;28;45334;-58
2023/04/30 05:35:36;;;;;;;;;37.00;33.00;;;;;14.74;54.50;101412.38;4936009;28;45402;-61
2023/04/30 05:38:02;;;;;;;;;36.00;30.50;;;;;14.61;54.22;101384.81;4936122;28;45523;-58
2023/04/30 05:40:28;;;;;;;;;40.40;32.60;;;;;14.70;54.51;101401.97;4935382;28;46575;-58
2023/04/30 05:42:54;;;;;;;;;34.25;33.50;;;;;14.66;54.33;101412.63;4935743;28;45540;-58
2023/04/30 05:45:19;;;;;;;;;37.75;33.00;;;;;14.50;54.64;101408.47;4935766;28;45463;-59
2023/04/30 05:47:45;;;;;;;;;36.00;30.25;;;;;14.41;55.74;101421.69;4935535;28;45354;-57
2023/04/30 05:50:10;;;;;;;;;33.00;31.00;;;;;14.49;55.17;101418.69;4935738;28;46208;-59
2023/04/30 05:52:36;;;;;;;;;41.50;35.25;;;;;14.63;55.00;101413.91;4935228;28;45449;-57
2023/04/30 05:55:01;;;;;;;;;42.25;33.25;;;;;14.74;54.59;101411.53;4935584;28;45435;-58
2023/04/30 05:57:27;;;;;;;;;36.75;31.75;;;;;14.70;54.32;101413.88;4936186;28;45551;-61
2023/04/30 05:59:53;;;;;;;;;42.00;33.20;;;;;14.79;54.32;101410.88;4935259;28;45443;-57
2023/04/30 06:02:18;;;;;;;;;36.00;31.00;;;;;14.83;54.20;101406.59;4934107;28;45426;-61
2023/04/30 06:04:44;;;;;;;;;39.25;33.25;;;;;14.70;54.52;101407.50;4949858;28;45818;-60
2023/04/30 06:07:09;;;;;;;;;34.50;26.25;;;;;14.67;54.88;101414.31;4934826;28;45361;-60
2023/04/30 06:09:35;;;;;;;;;32.25;29.75;;;;;14.55;55.16;101414.19;4935171;28;46271;-58
2023/04/30 06:12:01;;;;;;;;;39.00;33.50;;;;;14.46;55.22;101402.53;4935058;28;45274;-57
2023/04/30 06:14:27;;;;;;;;;46.80;36.00;;;;;14.64;55.10;101412.84;4933829;28;45331;-58
2023/04/30 06:16:52;;;;;;;;;32.75;29.75;;;;;14.85;54.28;101418.25;4950222;28;45502;-59
2023/04/30 06:19:18;;;;;;;;;37.75;31.75;;;;;14.98;54.56;101418.16;4933622;28;46437;-59
2023/04/30 06:21:43;;;;;;;;;42.25;34.75;;;;;15.07;54.11;101423.41;4949609;28;45322;-59
2023/04/30 06:24:09;;;;;;;;;39.50;33.75;;;;;15.15;53.70;101423.97;4933818;28;45435;-58
2023/04/30 06:26:35;;;;;;;;;37.50;32.25;;;;;15.20;53.25;101416.94;4934496;28;45431;-60
2023/04/30 06:29:00;;;;;;;;;43.25;35.50;;;;;15.17;53.45;101408.00;4934735;28;46425;-58
2023/04/30 06:31:26;;;;;;;;;36.25;34.75;;;;;15.13;53.50;101401.25;4935287;28;45247;-60
2023/04/30 06:33:51;;;;;;;;;38.00;33.25;;;;;15.23;52.99;101417.31;4933676;28;45343;-60
2023/04/30 06:36:18;;;;;;;;;36.50;32.00;;;;;15.28;53.42;101425.78;4935475;28;45247;-59
2023/04/30 06:38:45;;;;;;;;;53.80;38.40;;;;;15.29;53.23;101419.19;4949544;28;47952;-60
2023/04/30 06:41:11;;;;;;;;;42.20;34.00;;;;;15.29;53.40;101415.56;4935335;28;45295;-60
2023/04/30 06:43:36;;;;;;;;;44.00;35.25;;;;;15.36;53.12;101421.84;4917002;28;45790;-59
2023/04/30 06:46:02;;;;;;;;;35.00;28.00;;;;;15.23;53.31;101413.69;4934885;28;45526;-59
2023/04/30 06:48:28;;;;;;;;;39.00;35.50;;;;;15.33;53.56;101422.34;4935028;28;46157;-59
2023/04/30 06:50:53;;;;;;;;;40.00;34.75;;;;;15.37;53.16;101412.50;4934704;28;45627;-58
2023/04/30 06:53:19;;;;;;;;;43.25;35.50;;;;;15.14;53.56;101386.34;4949650;28;45513;-59
2023/04/30 06:55:47;;;;;;;;;40.75;34.50;;;;;15.28;53.51;101417.50;4949825;28;45562;-59
2023/04/30 06:58:13;;;;;;;;;44.80;35.60;;;;;15.37;53.20;101414.41;4933095;28;45680;-59
2023/04/30 07:00:38;;;;;;;;;45.25;36.00;;;;;15.37;52.74;101411.66;4934771;28;45448;-60
2023/04/30 07:03:03;;;;;;;;;42.75;36.00;;;;;15.37;53.23;101417.19;4934634;28;45433;-60
2023/04/30 07:05:30;;;;;;;;;48.75;38.75;;;;;15.41;52.99;101408.19;4934914;28;45383;-60
2023/04/30 07:07:56;;;;;;;;;35.00;33.80;;;;;15.44;52.64;101406.91;4949190;28;46065;-61
2023/04/30 07:10:21;;;;;;;;;52.00;38.80;;;;;15.34;52.85;101384.44;4920040;28;45449;-59
2023/04/30 07:12:47;;;;;;;;;43.25;36.00;;;;;15.45;53.18;101412.22;4936823;28;45338;-60
2023/04/30 07:15:12;;;;;;;;;46.00;35.25;;;;;15.48;52.58;101408.13;4947008;28;45567;-59
2023/04/30 07:17:40;;;;;;;;;44.75;36.00;;;;;15.37;53.29;101406.94;4986829;28;45405;-59
2023/04/30 07:20:07;;;;;;;;;36.00;33.00;;;;;15.42;53.02;101414.59;4931074;28;45461;-60
2023/04/30 07:22:32;;;;;;;;;38.20;34.40;;;;;15.24;53.55;101405.19;4948230;28;45449;-60
2023/04/30 07:24:58;;;;;;;;;39.75;35.00;;;;;15.36;53.59;101404.44;4947569;28;45527;-60
2023/04/30 07:27:24;;;;;;;;;48.00;37.50;;;;;15.31;52.93;101413.41;4962543;28;46024;-60
2023/04/30 07:29:50;;;;;;;;;41.75;34.25;;;;;15.07;53.73;101409.56;4970545;28;45489;-60
2023/04/30 07:32:15;;;;;;;;;41.80;36.00;;;;;15.25;53.91;101417.06;4963603;28;45456;-61
2023/04/30 07:34:41;;;;;;;;;38.25;35.25;;;;;15.39;53.64;101417.78;4933124;28;45568;-59
2023/04/30 07:37:08;;;;;;;;;40.50;35.75;;;;;15.32;53.38;101427.00;4932735;28;45648;-58
2023/04/30 07:39:34;;;;;;;;;46.40;35.40;;;;;15.38;53.36;101425.22;4944442;28;45347;-60
2023/04/30 07:42:01;;;;;;;;;48.00;39.00;;;;;15.44;53.16;101429.03;4952249;28;45568;-60
2023/04/30 07:44:27;;;;;;;;;47.80;38.00;;;;;15.29;53.60;101415.56;4918627;28;45394;-61
2023/04/30 07:46:54;;;;;;;;;45.20;36.00;;;;;15.37;53.66;101434.63;4932513;28;47630;-60
2023/04/30 07:49:19;;;;;;;;;44.25;35.75;;;;;15.25;53.74;101425.38;4946947;28;45323;-60
2023/04/30 07:51:45;;;;;;;;;48.25;37.00;;;;;15.41;53.32;101422.03;4931814;28;45343;-61
2023/04/30 07:54:11;;;;;;;;;43.60;37.80;;;;;15.59;53.23;101428.66;4933320;28;45596;-61
2023/04/30 07:56:36;;;;;;;;;44.75;35.75;;;;;15.71;52.59;101426.81;4946669;28;47622;-60
2023/04/30 07:59:02;;;;;;;;;42.25;38.00;;;;;15.65;53.07;101429.66;5019730;28;45436;-60
2023/04/30 08:01:27;;;;;;;;;43.25;36.00;;;;;15.55;53.48;101430.19;5033758;28;45375;-59
2023/04/30 08:03:53;;;;;;;;;51.75;39.50;;;;;15.68;53.56;101429.19;4975610;28;45495;-61
2023/04/30 08:06:18;;;;;;;;;45.00;37.50;;;;;15.74;53.03;101433.81;4939502;28;46568;-60
2023/04/30 08:08:44;;;;;;;;;49.00;36.25;;;;;15.54;53.12;101421.03;4932102;28;45761;-60
2023/04/30 08:11:10;;;;;;;;;45.25;38.50;;;;;15.59;53.37;101423.97;4991340;28;45431;-59
2023/04/30 08:13:36;;;;;;;;;47.20;37.00;;;;;15.65;53.61;101424.13;4956501;28;45406;-59
2023/04/30 08:16:01;;;;;;;;;45.25;38.00;;;;;15.74;53.10;101424.69;4935439;28;45597;-60
2023/04/30 08:18:28;;;;;;;;;36.00;28.50;;;;;15.82;52.52;101408.63;4943920;28;46044;-60
2023/04/30 08:20:53;;;;;;;;;42.20;35.00;;;;;16.03;52.38;101417.56;4970405;28;45859;-59
2023/04/30 08:23:18;;;;;;;;;48.50;36.75;;;;;15.98;52.80;101411.88;4949977;28;45469;-61
2023/04/30 08:25:44;;;;;;;;;46.25;38.00;;;;;16.04;52.40;101410.94;4951265;28;46165;-60
2023/04/30 08:28:09;;;;;;;;;46.00;38.25;;;;;15.99;52.73;101416.31;4950010;28;45560;-60
2023/04/30 08:30:35;;;;;;;;;34.25;32.00;;;;;15.92;52.58;101398.94;4966314;28;45496;-60
2023/04/30 08:33:00;;;;;;;;;47.25;36.75;;;;;16.15;52.83;101413.97;4951529;28;45536;-61
2023/04/30 08:35:28;;;;;;;;;38.25;34.25;;;;;16.04;52.69;101405.41;4951345;28;46217;-61
2023/04/30 08:37:54;;;;;;;;;42.40;35.20;;;;;16.05;52.58;101396.00;4951607;28;45517;-60
2023/04/30 08:40:19;;;;;;;;;39.25;34.50;;;;;16.20;52.64;101414.13;4964369;28;45530;-61
2023/04/30 08:42:49;;;;;;;;;45.25;36.25;;;;;16.29;52.00;101401.66;4957293;28;45571;-59
2023/04/30 08:45:15;;;;;;;;;46.40;37.60;;;;;16.49;51.67;101408.84;4961528;28;47445;-62
2023/04/30 08:47:40;;;;;;;;;35.75;31.25;;;;;16.55;51.31;101409.81;4935614;28;45485;-60
2023/04/30 08:50:06;;;;;;;;;41.75;32.50;;;;;16.56;51.50;101406.81;4929591;28;45311;-60
2023/04/30 08:52:33;;;;;;;;;41.25;34.50;;;;;16.68;51.52;101398.53;4945646;28;45511;-60
2023/04/30 08:54:59;;;;;;;;;39.00;34.60;;;;;16.81;50.79;101414.09;4981587;28;46735;-60
2023/04/30 08:57:25;;;;;;;;;40.40;34.80;;;;;16.91;51.08;101407.97;4951548;28;45421;-60
2023/04/30 08:59:52;;;;;;;;;44.60;32.60;;;;;17.04;50.81;101404.19;4935712;28;45452;-61
2023/04/30 09:02:18;;;;;;;;;40.20;35.00;;;;;17.14;50.46;101401.63;4932253;28;45567;-60
2023/04/30 09:04:43;;;;;;;;;38.50;31.75;;;;;17.19;49.85;101404.53;4946019;28;45945;-61
2023/04/30 09:07:10;;;;;;;;;38.00;34.00;;;;;17.20;49.43;101406.22;4953173;28;45425;-58
2023/04/30 09:09:39;;;;;;;;;31.80;29.20;;;;;17.07;49.95;101400.91;4946485;28;45437;-60
2023/04/30 09:12:13;;;;;;;;;44.40;34.40;;;;;17.17;49.86;101403.94;4986161;28;45577;-60
2023/04/30 09:14:39;;;;;;;;;33.60;31.40;;;;;17.26;49.67;101398.03;5012851;28;45965;-59
2023/04/30 09:17:04;;;;;;;;;38.00;35.50;;;;;17.41;49.52;101390.09;5030442;28;45396;-58
2023/04/30 09:19:30;;;;;;;;;36.25;32.00;;;;;17.55;49.21;101393.44;5011631;28;45463;-59
2023/04/30 09:21:56;;;;;;;;;37.50;32.50;;;;;17.71;48.95;101394.63;5012713;28;45641;-59
2023/04/30 09:24:21;;;;;;;;;37.50;31.75;;;;;17.84;48.45;101401.00;5012781;28;45881;-60
2023/04/30 09:26:47;;;;;;;;;29.25;28.50;;;;;17.90;47.97;101397.22;5011216;28;45394;-60
2023/04/30 09:29:13;;;;;;;;;29.50;29.00;;;;;17.95;48.00;101394.56;5010684;28;45875;-61
2023/04/30 09:31:42;;;;;;;;;37.00;32.00;;;;;18.00;47.77;101396.59;5011860;28;45433;-62
2023/04/30 09:34:07;;;;;;;;;33.60;28.20;;;;;18.01;47.07;101392.72;5012444;28;45797;-62
2023/04/30 09:36:33;;;;;;;;;30.50;29.50;;;;;17.87;47.02;101381.91;5011422;28;45394;-63
2023/04/30 09:39:10;;;;;;;;;32.25;28.75;;;;;17.89;47.70;101392.78;4999211;28;45632;-62
2023/04/30 09:41:36;;;;;;;;;30.80;28.60;;;;;18.00;47.49;101389.09;5015652;28;45370;-62
2023/04/30 09:44:01;;;;;;;;;30.50;24.75;;;;;18.04;47.13;101395.00;5011048;28;46585;-63
2023/04/30 09:46:35;;;;;;;;;31.00;27.25;;;;;18.17;47.09;101391.13;5012066;28;45754;-61
2023/04/30 09:49:02;;;;;;;;;28.60;24.60;;;;;18.34;46.91;101387.56;5012004;28;45429;-61
2023/04/30 09:51:28;;;;;;;;;32.40;27.60;;;;;18.35;46.55;101390.09;5013752;28;45522;-61
2023/04/30 09:53:53;;;;;;;;;26.00;25.00;;;;;18.34;46.21;101395.88;5013574;28;45577;-61
2023/04/30 09:56:21;;;;;;;;;20.00;14.25;;;;;18.30;46.40;101381.66;5011802;28;45512;-62
2023/04/30 09:58:58;;;;;;;;;30.60;28.60;;;;;18.33;46.09;101383.09;5027502;28;45478;-63
2023/04/30 10:01:26;;;;;;;;;32.00;26.40;;;;;18.40;46.80;101383.78;5045828;28;45377;-61
2023/04/30 10:03:52;;;;;;;;;29.80;27.20;;;;;18.27;46.39;101380.25;5026607;28;46138;-63
2023/04/30 10:06:18;;;;;;;;;33.50;29.75;;;;;18.19;45.86;101369.50;5028733;28;46561;-63
2023/04/30 10:08:46;;;;;;;;;28.75;23.50;;;;;18.34;46.90;101376.44;5015288;28;45426;-63
2023/04/30 10:11:15;;;;;;;;;29.40;23.40;;;;;18.60;46.66;101363.00;5013029;28;45592;-62
2023/04/30 10:13:43;;;;;;;;;29.40;27.00;;;;;18.72;46.62;101363.78;5027942;28;47084;-62
2023/04/30 10:16:17;;;;;;;;;26.60;20.80;;;;;18.76;46.09;101362.19;5014889;28;45716;-62
2023/04/30 10:18:43;;;;;;;;;31.20;24.00;;;;;18.90;45.78;101361.84;5033410;28;45516;-63
2023/04/30 10:21:10;;;;;;;;;20.00;17.00;;;;;19.08;45.74;101356.06;5015846;28;45663;-64
2023/04/30 10:23:38;;;;;;;;;25.20;22.20;;;;;19.16;44.53;101338.06;5046667;28;45865;-62
2023/04/30 10:26:03;;;;;;;;;20.20;18.40;;;;;19.38;44.77;101342.88;5046695;28;45437;-59
2023/04/30 10:28:29;;;;;;;;;21.00;19.25;;;;;19.59;44.71;101346.75;5014082;28;45433;-61
2023/04/30 10:30:55;;;;;;;;;24.60;23.20;;;;;19.73;44.22;101344.41;5012018;28;45459;-62
2023/04/30 10:33:51;;;;;;;;;25.75;23.00;;;;;19.84;43.89;101337.03;5014151;28;45607;-62
2023/04/30 10:36:44;;;;;;;;;31.40;23.40;;;;;19.84;43.93;101333.41;5046191;28;45508;-62
2023/04/30 10:39:11;;;;;;;;;22.20;20.00;;;;;19.81;44.01;101329.22;5014733;28;45575;-59
2023/04/30 10:41:37;;;;;;;;;20.20;18.00;;;;;19.71;43.65;101329.94;5031713;28;45998;-59
2023/04/30 10:44:04;;;;;;;;;25.50;21.75;;;;;19.69;43.76;101331.28;5035201;28;45964;-59
2023/04/30 10:46:29;;;;;;;;;19.80;17.00;;;;;19.61;44.23;101329.78;5034792;28;45657;-61
2023/04/30 10:48:55;;;;;;;;;43.00;32.50;;;;;19.58;43.82;101317.22;5067732;28;45594;-59
2023/04/30 10:51:21;;;;;;;;;18.50;17.50;;;;;19.67;43.82;101325.97;5067379;28;45239;-59
2023/04/30 10:53:50;;;;;;;;;18.50;18.50;;;;;19.34;43.76;101302.72;5062963;28;46332;-59
2023/04/30 10:56:28;;;;;;;;;15.60;14.80;;;;;19.49;43.07;101322.41;5032174;28;45522;-59
2023/04/30 10:58:57;;;;;;;;;15.00;14.80;;;;;19.58;43.34;101314.44;5055248;28;46085;-60
2023/04/30 11:01:23;;;;;;;;;14.60;12.40;;;;;19.76;42.03;101313.25;5046702;28;45380;-60
2023/04/30 11:04:09;;;;;;;;;14.75;13.00;;;;;20.02;41.71;101318.34;5020413;28;46542;-60
2023/04/30 11:06:48;;;;;;;;;10.20;10.20;;;;;20.23;39.80;101315.75;4973440;28;45450;-60
2023/04/30 11:09:13;;;;;;;;;12.00;12.00;;;;;20.13;40.40;101296.97;4934090;28;45491;-62